Aviation Digital Data Service (ADDS)

Output produced by METARs form (0008 UTC 26 June 2017)
found at http://aviationweather.gov/adds/metars/
 
KSLK 252340Z 2600/2624 25008G15KT P6SM VCSH SCT050 BKN070 
     FM260300 24005KT P6SM SCT025 BKN050 
     FM260700 24004KT 5SM BR BKN020 BKN045 
     TEMPO 2607/2609 3SM BR BKN010 
     FM261300 25005KT P6SM BKN060 
     FM261700 26006KT P6SM VCSH BKN050